sensor_id;sensor_type;location;lat;lon;timestamp;pressure;altitude;pressure_sealevel;temperature;humidity
63019;BME280;49105;46.046;10.760;2022-09-21T00:00:29;96020.81;;;10.26;63.08
63019;BME280;49105;46.046;10.760;2022-09-21T00:02:56;96029.84;;;10.35;62.94
63019;BME280;49105;46.046;10.760;2022-09-21T00:05:22;96031.47;;;10.47;62.75
63019;BME280;49105;46.046;10.760;2022-09-21T00:07:48;96030.13;;;10.49;62.66
63019;BME280;49105;46.046;10.760;2022-09-21T00:10:13;96027.75;;;10.48;62.75
63019;BME280;49105;46.046;10.760;2022-09-21T00:12:39;96027.19;;;10.40;62.43
63019;BME280;49105;46.046;10.760;2022-09-21T00:15:06;96027.69;;;10.32;62.92
63019;BME280;49105;46.046;10.760;2022-09-21T00:17:32;96024.53;;;10.35;62.76
63019;BME280;49105;46.046;10.760;2022-09-21T00:19:58;96029.03;;;10.35;62.57
63019;BME280;49105;46.046;10.760;2022-09-21T00:22:25;96033.53;;;10.29;62.96
63019;BME280;49105;46.046;10.760;2022-09-21T00:24:51;96027.69;;;10.32;62.95
63019;BME280;49105;46.046;10.760;2022-09-21T00:27:16;96028.78;;;10.36;62.36
63019;BME280;49105;46.046;10.760;2022-09-21T00:29:42;96031.81;;;10.08;62.89
63019;BME280;49105;46.046;10.760;2022-09-21T00:32:07;96040.22;;;9.89;63.99
63019;BME280;49105;46.046;10.760;2022-09-21T00:34:32;96036.53;;;9.90;63.30
63019;BME280;49105;46.046;10.760;2022-09-21T00:36:58;96033.66;;;9.97;63.95
63019;BME280;49105;46.046;10.760;2022-09-21T00:39:23;96045.06;;;10.08;63.46
63019;BME280;49105;46.046;10.760;2022-09-21T00:41:48;96043.53;;;10.22;62.81
63019;BME280;49105;46.046;10.760;2022-09-21T00:46:56;96045.16;;;10.28;62.48
63019;BME280;49105;46.046;10.760;2022-09-21T00:49:24;96041.47;;;10.29;62.98
63019;BME280;49105;46.046;10.760;2022-09-21T00:51:51;96046.22;;;10.32;62.58
63019;BME280;49105;46.046;10.760;2022-09-21T00:54:24;96048.34;;;10.30;62.90
63019;BME280;49105;46.046;10.760;2022-09-21T00:56:51;96040.09;;;10.16;62.85
63019;BME280;49105;46.046;10.760;2022-09-21T00:59:18;96051.91;;;9.99;63.03
63019;BME280;49105;46.046;10.760;2022-09-21T01:01:44;96045.03;;;9.98;63.67
63019;BME280;49105;46.046;10.760;2022-09-21T01:04:11;96049.00;;;10.00;63.33
63019;BME280;49105;46.046;10.760;2022-09-21T01:06:38;96050.81;;;9.94;63.98
63019;BME280;49105;46.046;10.760;2022-09-21T01:09:04;96052.97;;;10.03;63.44
63019;BME280;49105;46.046;10.760;2022-09-21T01:14:25;96056.97;;;10.10;63.67
63019;BME280;49105;46.046;10.760;2022-09-21T01:22:09;96050.13;;;10.19;63.38
63019;BME280;49105;46.046;10.760;2022-09-21T01:27:45;96052.16;;;9.97;63.98
63019;BME280;49105;46.046;10.760;2022-09-21T01:30:16;96047.41;;;9.99;63.98
63019;BME280;49105;46.046;10.760;2022-09-21T01:32:47;96048.44;;;9.93;63.44
63019;BME280;49105;46.046;10.760;2022-09-21T01:35:33;96048.44;;;9.93;64.18
63019;BME280;49105;46.046;10.760;2022-09-21T01:38:13;96063.66;;;9.70;64.32
63019;BME280;49105;46.046;10.760;2022-09-21T01:40:54;96055.97;;;9.64;64.64
63019;BME280;49105;46.046;10.760;2022-09-21T01:43:37;96062.09;;;9.75;64.00
63019;BME280;49105;46.046;10.760;2022-09-21T01:46:06;96052.66;;;9.89;64.24
63019;BME280;49105;46.046;10.760;2022-09-21T01:48:37;96057.19;;;9.99;64.01
63019;BME280;49105;46.046;10.760;2022-09-21T01:51:07;96055.59;;;9.98;63.65
63019;BME280;49105;46.046;10.760;2022-09-21T01:53:38;96046.59;;;9.93;63.87
63019;BME280;49105;46.046;10.760;2022-09-21T01:56:09;96048.13;;;9.79;63.77
63019;BME280;49105;46.046;10.760;2022-09-21T02:01:37;96046.53;;;9.83;64.09
63019;BME280;49105;46.046;10.760;2022-09-21T02:04:09;96057.06;;;9.73;64.24
63019;BME280;49105;46.046;10.760;2022-09-21T02:06:38;96051.69;;;9.58;64.53
63019;BME280;49105;46.046;10.760;2022-09-21T02:09:06;96058.81;;;9.52;64.70
63019;BME280;49105;46.046;10.760;2022-09-21T02:11:33;96051.69;;;9.58;65.02
63019;BME280;49105;46.046;10.760;2022-09-21T02:13:58;96052.25;;;9.65;64.68
63019;BME280;49105;46.046;10.760;2022-09-21T02:16:35;96056.28;;;9.73;64.41
63019;BME280;49105;46.046;10.760;2022-09-21T02:19:19;96063.44;;;9.77;64.31
63019;BME280;49105;46.046;10.760;2022-09-21T02:22:12;96059.72;;;9.78;64.02
63019;BME280;49105;46.046;10.760;2022-09-21T02:24:53;96054.97;;;9.75;64.06
63019;BME280;49105;46.046;10.760;2022-09-21T02:27:37;96061.25;;;9.64;64.04
63019;BME280;49105;46.046;10.760;2022-09-21T02:30:19;96061.44;;;9.52;64.67
63019;BME280;49105;46.046;10.760;2022-09-21T02:35:26;96058.03;;;9.57;64.65
63019;BME280;49105;46.046;10.760;2022-09-21T02:38:07;96055.34;;;9.47;64.46
63019;BME280;49105;46.046;10.760;2022-09-21T02:40:50;96060.34;;;9.48;64.73
63019;BME280;49105;46.046;10.760;2022-09-21T02:43:46;96056.97;;;9.58;64.79
63019;BME280;49105;46.046;10.760;2022-09-21T02:46:27;96063.34;;;9.62;64.39
63019;BME280;49105;46.046;10.760;2022-09-21T02:48:58;96064.41;;;9.66;64.12
63019;BME280;49105;46.046;10.760;2022-09-21T02:51:32;96068.69;;;9.72;64.50
63019;BME280;49105;46.046;10.760;2022-09-21T02:54:03;96067.63;;;9.73;64.46
63019;BME280;49105;46.046;10.760;2022-09-21T02:56:30;96069.19;;;9.69;64.35
63019;BME280;49105;46.046;10.760;2022-09-21T02:58:56;96069.69;;;9.61;64.81
63019;BME280;49105;46.046;10.760;2022-09-21T03:01:24;96067.53;;;9.53;64.19
63019;BME280;49105;46.046;10.760;2022-09-21T03:03:51;96073.88;;;9.52;64.58
63019;BME280;49105;46.046;10.760;2022-09-21T03:06:16;96070.16;;;9.53;64.34
63019;BME280;49105;46.046;10.760;2022-09-21T03:08:42;96064.38;;;9.56;64.57
63019;BME280;49105;46.046;10.760;2022-09-21T03:11:07;96068.63;;;9.62;64.29
63019;BME280;49105;46.046;10.760;2022-09-21T03:13:35;96071.47;;;9.50;64.53
63019;BME280;49105;46.046;10.760;2022-09-21T03:16:03;96066.75;;;9.20;65.02
63019;BME280;49105;46.046;10.760;2022-09-21T03:18:30;96074.06;;;9.08;65.15
63019;BME280;49105;46.046;10.760;2022-09-21T03:20:56;96077.78;;;9.12;65.04
63019;BME280;49105;46.046;10.760;2022-09-21T03:23:21;96082.00;;;9.13;64.92
63019;BME280;49105;46.046;10.760;2022-09-21T03:25:47;96077.81;;;9.17;65.32
63019;BME280;49105;46.046;10.760;2022-09-21T03:28:13;96078.38;;;9.19;65.08
63019;BME280;49105;46.046;10.760;2022-09-21T03:30:40;96076.84;;;9.23;65.07
63019;BME280;49105;46.046;10.760;2022-09-21T03:33:06;96089.75;;;9.19;65.30
63019;BME280;49105;46.046;10.760;2022-09-21T03:35:32;96085.31;;;8.93;65.56
63019;BME280;49105;46.046;10.760;2022-09-21T03:38:01;96081.16;;;8.75;65.59
63019;BME280;49105;46.046;10.760;2022-09-21T03:40:27;96082.16;;;8.69;66.23
63019;BME280;49105;46.046;10.760;2022-09-21T03:42:53;96092.28;;;8.77;65.72
63019;BME280;49105;46.046;10.760;2022-09-21T03:45:20;96088.44;;;8.90;65.71
63019;BME280;49105;46.046;10.760;2022-09-21T03:47:46;96095.88;;;8.93;65.21
63019;BME280;49105;46.046;10.760;2022-09-21T03:50:12;96094.31;;;8.97;65.45
63019;BME280;49105;46.046;10.760;2022-09-21T03:52:37;96098.84;;;9.02;65.15
63019;BME280;49105;46.046;10.760;2022-09-21T03:55:04;96105.75;;;9.08;65.24
63019;BME280;49105;46.046;10.760;2022-09-21T03:57:34;96096.31;;;9.17;64.50
63019;BME280;49105;46.046;10.760;2022-09-21T04:00:00;96103.66;;;9.10;64.78
63019;BME280;49105;46.046;10.760;2022-09-21T04:02:28;96104.81;;;8.92;65.29
63019;BME280;49105;46.046;10.760;2022-09-21T04:04:53;96102.03;;;8.77;66.06
63019;BME280;49105;46.046;10.760;2022-09-21T04:07:19;96100.09;;;8.67;66.21
63019;BME280;49105;46.046;10.760;2022-09-21T04:09:44;96101.66;;;8.68;65.91
63019;BME280;49105;46.046;10.760;2022-09-21T04:12:10;96103.31;;;8.74;65.90
63019;BME280;49105;46.046;10.760;2022-09-21T04:14:36;96097.56;;;8.77;66.04
63019;BME280;49105;46.046;10.760;2022-09-21T04:17:01;96104.47;;;8.83;65.77
63019;BME280;49105;46.046;10.760;2022-09-21T04:19:26;96110.22;;;8.80;65.19
63019;BME280;49105;46.046;10.760;2022-09-21T04:21:52;96105.78;;;8.81;65.65
63019;BME280;49105;46.046;10.760;2022-09-21T04:24:17;96116.06;;;8.82;65.23
63019;BME280;49105;46.046;10.760;2022-09-21T04:26:44;96115.81;;;8.84;65.16
63019;BME280;49105;46.046;10.760;2022-09-21T04:29:11;96125.03;;;8.81;65.48
63019;BME280;49105;46.046;10.760;2022-09-21T04:31:37;96127.34;;;8.73;65.61
63019;BME280;49105;46.046;10.760;2022-09-21T04:34:02;96136.03;;;8.73;65.50
63019;BME280;49105;46.046;10.760;2022-09-21T04:36:28;96135.25;;;8.73;65.85
63019;BME280;49105;46.046;10.760;2022-09-21T04:38:54;96128.16;;;8.78;65.43
63019;BME280;49105;46.046;10.760;2022-09-21T04:41:19;96141.38;;;8.78;65.90
63019;BME280;49105;46.046;10.760;2022-09-21T04:43:46;96149.03;;;8.80;65.26
63019;BME280;49105;46.046;10.760;2022-09-21T04:46:14;96146.66;;;8.78;65.65
63019;BME280;49105;46.046;10.760;2022-09-21T04:48:40;96142.31;;;8.67;65.92
63019;BME280;49105;46.046;10.760;2022-09-21T04:51:06;96147.56;;;8.67;66.09
63019;BME280;49105;46.046;10.760;2022-09-21T04:53:34;96148.13;;;8.69;65.65
63019;BME280;49105;46.046;10.760;2022-09-21T04:56:00;96156.41;;;8.78;65.74
63019;BME280;49105;46.046;10.760;2022-09-21T04:58:26;96153.28;;;8.81;65.22
63019;BME280;49105;46.046;10.760;2022-09-21T05:00:52;96168.25;;;8.75;65.50
63019;BME280;49105;46.046;10.760;2022-09-21T05:03:19;96175.00;;;8.66;66.12
63019;BME280;49105;46.046;10.760;2022-09-21T05:05:50;96174.53;;;8.69;66.00
63019;BME280;49105;46.046;10.760;2022-09-21T05:08:16;96178.13;;;8.63;65.78
63019;BME280;49105;46.046;10.760;2022-09-21T05:10:43;96174.16;;;8.60;65.94
63019;BME280;49105;46.046;10.760;2022-09-21T05:13:09;96179.06;;;8.74;65.82
63019;BME280;49105;46.046;10.760;2022-09-21T05:15:37;96177.09;;;8.86;66.02
63019;BME280;49105;46.046;10.760;2022-09-21T05:18:04;96178.50;;;8.72;65.67
63019;BME280;49105;46.046;10.760;2022-09-21T05:20:29;96184.91;;;8.54;66.65
63019;BME280;49105;46.046;10.760;2022-09-21T05:22:58;96192.03;;;8.53;66.76
63019;BME280;49105;46.046;10.760;2022-09-21T05:25:25;96181.81;;;8.62;66.27
63019;BME280;49105;46.046;10.760;2022-09-21T05:27:51;96180.81;;;8.68;66.57
63019;BME280;49105;46.046;10.760;2022-09-21T05:30:17;96190.09;;;8.70;66.62
63019;BME280;49105;46.046;10.760;2022-09-21T05:33:08;96193.09;;;8.79;66.04
63019;BME280;49105;46.046;10.760;2022-09-21T05:35:47;96194.81;;;8.90;66.39
63019;BME280;49105;46.046;10.760;2022-09-21T05:38:19;96204.69;;;9.00;66.30
63019;BME280;49105;46.046;10.760;2022-09-21T05:40:45;96203.94;;;9.05;65.60
63019;BME280;49105;46.046;10.760;2022-09-21T05:43:14;96202.47;;;9.14;65.51
63019;BME280;49105;46.046;10.760;2022-09-21T05:45:43;96201.56;;;9.30;65.55
63019;BME280;49105;46.046;10.760;2022-09-21T05:48:19;96211.69;;;9.38;65.25
63019;BME280;49105;46.046;10.760;2022-09-21T05:51:15;96206.31;;;9.33;65.52
63019;BME280;49105;46.046;10.760;2022-09-21T05:53:58;96218.22;;;9.31;65.15
63019;BME280;49105;46.046;10.760;2022-09-21T06:04:37;96218.41;;;9.51;65.21
63019;BME280;49105;46.046;10.760;2022-09-21T06:07:02;96225.59;;;9.61;65.36
63019;BME280;49105;46.046;10.760;2022-09-21T06:09:28;96231.44;;;9.63;65.38
63019;BME280;49105;46.046;10.760;2022-09-21T06:11:53;96230.84;;;9.56;64.84
63019;BME280;49105;46.046;10.760;2022-09-21T06:14:18;96223.41;;;9.53;64.85
63019;BME280;49105;46.046;10.760;2022-09-21T06:16:49;96234.78;;;9.53;65.01
63019;BME280;49105;46.046;10.760;2022-09-21T06:19:15;96228.25;;;9.61;65.49
63019;BME280;49105;46.046;10.760;2022-09-21T06:21:40;96231.97;;;9.65;65.02
63019;BME280;49105;46.046;10.760;2022-09-21T06:24:06;96232.53;;;9.67;64.88
63019;BME280;49105;46.046;10.760;2022-09-21T06:26:32;96232.28;;;9.68;64.53
63019;BME280;49105;46.046;10.760;2022-09-21T06:28:57;96237.56;;;9.68;64.76
63019;BME280;49105;46.046;10.760;2022-09-21T06:31:22;96239.44;;;9.73;65.25
63019;BME280;49105;46.046;10.760;2022-09-21T06:33:48;96233.16;;;9.79;65.35
63019;BME280;49105;46.046;10.760;2022-09-21T06:36:14;96236.97;;;9.93;64.99
63019;BME280;49105;46.046;10.760;2022-09-21T06:38:40;96230.88;;;9.93;64.24
63019;BME280;49105;46.046;10.760;2022-09-21T06:41:05;96234.06;;;9.95;64.52
63019;BME280;49105;46.046;10.760;2022-09-21T06:43:31;96219.88;;;10.11;64.53
63019;BME280;49105;46.046;10.760;2022-09-21T06:45:59;96233.53;;;10.25;64.14
63019;BME280;49105;46.046;10.760;2022-09-21T06:48:29;96228.84;;;10.37;64.22
63019;BME280;49105;46.046;10.760;2022-09-21T06:51:03;96235.75;;;10.49;63.90
63019;BME280;49105;46.046;10.760;2022-09-21T06:53:30;96232.91;;;10.60;63.83
63019;BME280;49105;46.046;10.760;2022-09-21T06:56:06;96228.19;;;10.67;63.64
63019;BME280;49105;46.046;10.760;2022-09-21T06:58:33;96232.44;;;10.74;63.53
63019;BME280;49105;46.046;10.760;2022-09-21T07:01:09;96231.13;;;10.76;63.46
63019;BME280;49105;46.046;10.760;2022-09-21T07:03:36;96232.97;;;10.71;63.67
63019;BME280;49105;46.046;10.760;2022-09-21T07:06:02;96229.47;;;10.65;63.69
63019;BME280;49105;46.046;10.760;2022-09-21T07:08:27;96239.28;;;10.64;64.16
63019;BME280;49105;46.046;10.760;2022-09-21T07:10:56;96231.63;;;10.73;63.98
63019;BME280;49105;46.046;10.760;2022-09-21T07:13:22;96226.41;;;10.88;63.58
63019;BME280;49105;46.046;10.760;2022-09-21T07:15:47;96225.41;;;11.00;63.11
63019;BME280;49105;46.046;10.760;2022-09-21T07:18:13;96221.19;;;11.09;63.37
63019;BME280;49105;46.046;10.760;2022-09-21T07:20:39;96227.81;;;11.11;63.06
63019;BME280;49105;46.046;10.760;2022-09-21T07:23:13;96232.59;;;11.25;62.95
63019;BME280;49105;46.046;10.760;2022-09-21T07:25:40;96226.28;;;11.36;62.72
63019;BME280;49105;46.046;10.760;2022-09-21T07:28:07;96224.69;;;11.45;62.50
63019;BME280;49105;46.046;10.760;2022-09-21T07:30:32;96225.50;;;11.51;62.47
63019;BME280;49105;46.046;10.760;2022-09-21T07:32:58;96231.34;;;11.58;62.14
63019;BME280;49105;46.046;10.760;2022-09-21T07:35:23;96227.63;;;11.59;62.12
63019;BME280;49105;46.046;10.760;2022-09-21T07:37:49;96225.25;;;11.57;62.07
63019;BME280;49105;46.046;10.760;2022-09-21T07:40:14;96225.50;;;11.61;62.34
63019;BME280;49105;46.046;10.760;2022-09-21T07:42:40;96226.81;;;11.63;62.06
63019;BME280;49105;46.046;10.760;2022-09-21T07:45:06;96226.03;;;11.68;62.03
63019;BME280;49105;46.046;10.760;2022-09-21T07:47:31;96228.72;;;11.73;61.76
63019;BME280;49105;46.046;10.760;2022-09-21T07:49:57;96231.91;;;11.85;61.67
63019;BME280;49105;46.046;10.760;2022-09-21T07:52:22;96227.13;;;11.92;61.45
63019;BME280;49105;46.046;10.760;2022-09-21T07:54:48;96221.56;;;11.99;61.06
63019;BME280;49105;46.046;10.760;2022-09-21T07:57:13;96227.91;;;12.08;61.11
63019;BME280;49105;46.046;10.760;2022-09-21T07:59:57;96218.09;;;12.19;60.67
63019;BME280;49105;46.046;10.760;2022-09-21T08:02:23;96228.97;;;12.23;60.57
63019;BME280;49105;46.046;10.760;2022-09-21T08:04:49;96222.31;;;12.30;60.21
63019;BME280;49105;46.046;10.760;2022-09-21T08:07:14;96221.78;;;12.38;59.60
63019;BME280;49105;46.046;10.760;2022-09-21T08:09:40;96218.53;;;12.47;59.49
63019;BME280;49105;46.046;10.760;2022-09-21T08:12:06;96212.16;;;12.53;59.61
63019;BME280;49105;46.046;10.760;2022-09-21T08:14:34;96213.22;;;12.57;59.40
63019;BME280;49105;46.046;10.760;2022-09-21T08:17:00;96214.25;;;12.66;59.96
63019;BME280;49105;46.046;10.760;2022-09-21T08:19:26;96210.75;;;12.81;59.04
63019;BME280;49105;46.046;10.760;2022-09-21T08:21:52;96218.69;;;12.86;58.67
63019;BME280;49105;46.046;10.760;2022-09-21T08:24:18;96207.25;;;12.90;58.69
63019;BME280;49105;46.046;10.760;2022-09-21T08:26:44;96216.75;;;13.02;58.83
63019;BME280;49105;46.046;10.760;2022-09-21T08:29:10;96210.59;;;13.11;58.19
63019;BME280;49105;46.046;10.760;2022-09-21T08:31:38;96205.00;;;13.13;58.17
63019;BME280;49105;46.046;10.760;2022-09-21T08:34:04;96215.88;;;13.22;57.69
63019;BME280;49105;46.046;10.760;2022-09-21T08:36:29;96214.00;;;13.27;57.41
63019;BME280;49105;46.046;10.760;2022-09-21T08:38:55;96206.75;;;13.33;57.72
63019;BME280;49105;46.046;10.760;2022-09-21T08:44:15;96202.13;;;13.54;57.34
63019;BME280;49105;46.046;10.760;2022-09-21T08:46:43;96202.59;;;13.61;56.53
63019;BME280;49105;46.046;10.760;2022-09-21T08:49:16;96193.00;;;13.65;56.72
63019;BME280;49105;46.046;10.760;2022-09-21T08:51:49;96195.84;;;13.74;56.61
63019;BME280;49105;46.046;10.760;2022-09-21T08:54:22;96187.03;;;13.78;56.39
63019;BME280;49105;46.046;10.760;2022-09-21T08:56:51;96178.50;;;13.81;56.28
63019;BME280;49105;46.046;10.760;2022-09-21T08:59:18;96184.84;;;13.85;56.09
63019;BME280;49105;46.046;10.760;2022-09-21T09:01:56;96179.94;;;13.98;55.70
63019;BME280;49105;46.046;10.760;2022-09-21T09:17:51;96169.22;;;14.80;51.40
63019;BME280;49105;46.046;10.760;2022-09-21T09:20:29;96161.34;;;14.94;50.97
63019;BME280;49105;46.046;10.760;2022-09-21T09:23:19;96162.75;;;15.05;49.13
63019;BME280;49105;46.046;10.760;2022-09-21T09:25:49;96152.53;;;15.12;47.87
63019;BME280;49105;46.046;10.760;2022-09-21T09:28:27;96153.47;;;15.21;46.81
63019;BME280;49105;46.046;10.760;2022-09-21T09:30:58;96150.25;;;15.24;46.48
63019;BME280;49105;46.046;10.760;2022-09-21T09:33:31;96151.53;;;15.27;44.49
63019;BME280;49105;46.046;10.760;2022-09-21T09:36:05;96145.03;;;15.33;45.00
63019;BME280;49105;46.046;10.760;2022-09-21T09:38:55;96147.34;;;15.39;44.92
63019;BME280;49105;46.046;10.760;2022-09-21T09:51:49;96132.69;;;15.56;41.89
63019;BME280;49105;46.046;10.760;2022-09-21T09:54:16;96129.59;;;15.68;42.26
63019;BME280;49105;46.046;10.760;2022-09-21T09:56:43;96134.22;;;15.76;42.44
63019;BME280;49105;46.046;10.760;2022-09-21T10:00:04;96124.56;;;15.80;41.78
63019;BME280;49105;46.046;10.760;2022-09-21T10:02:06;96128.41;;;15.74;38.69
63019;BME280;49105;46.046;10.760;2022-09-21T10:04:32;96120.81;;;15.81;38.68
63019;BME280;49105;46.046;10.760;2022-09-21T10:06:59;96120.94;;;15.90;38.90
63019;BME280;49105;46.046;10.760;2022-09-21T10:09:33;96127.06;;;16.04;38.91
63019;BME280;49105;46.046;10.760;2022-09-21T10:12:23;96114.13;;;16.11;38.65
63019;BME280;49105;46.046;10.760;2022-09-21T10:14:53;96112.47;;;16.15;38.88
63019;BME280;49105;46.046;10.760;2022-09-21T10:17:19;96118.19;;;16.22;39.45
63019;BME280;49105;46.046;10.760;2022-09-21T10:19:45;96114.44;;;16.23;37.87
63019;BME280;49105;46.046;10.760;2022-09-21T10:22:18;96110.09;;;16.27;38.23
63019;BME280;49105;46.046;10.760;2022-09-21T10:24:52;96108.41;;;16.31;38.80
63019;BME280;49105;46.046;10.760;2022-09-21T10:27:25;96113.44;;;16.33;38.42
63019;BME280;49105;46.046;10.760;2022-09-21T10:29:52;96100.28;;;16.36;38.08
63019;BME280;49105;46.046;10.760;2022-09-21T10:32:25;96105.03;;;16.40;37.45
63019;BME280;49105;46.046;10.760;2022-09-21T10:37:38;96090.38;;;16.37;36.37
63019;BME280;49105;46.046;10.760;2022-09-21T10:42:41;96084.94;;;16.56;35.93
63019;BME280;49105;46.046;10.760;2022-09-21T10:45:17;96085.22;;;16.68;36.78
63019;BME280;49105;46.046;10.760;2022-09-21T10:47:46;96085.41;;;16.72;36.41
63019;BME280;49105;46.046;10.760;2022-09-21T10:50:33;96070.78;;;16.83;36.48
63019;BME280;49105;46.046;10.760;2022-09-21T10:53:09;96076.41;;;16.81;35.67
63019;BME280;49105;46.046;10.760;2022-09-21T10:55:38;96082.72;;;16.85;36.25
63019;BME280;49105;46.046;10.760;2022-09-21T10:58:09;96077.56;;;16.89;35.99
63019;BME280;49105;46.046;10.760;2022-09-21T11:00:46;96077.25;;;16.91;35.30
63019;BME280;49105;46.046;10.760;2022-09-21T11:06:06;96072.53;;;16.88;35.03
63019;BME280;49105;46.046;10.760;2022-09-21T11:08:39;96067.72;;;16.98;35.87
63019;BME280;49105;46.046;10.760;2022-09-21T11:14:42;96074.13;;;17.11;35.77
63019;BME280;49105;46.046;10.760;2022-09-21T11:17:19;96051.94;;;17.10;35.63
63019;BME280;49105;46.046;10.760;2022-09-21T11:19:54;96063.78;;;17.18;35.75
63019;BME280;49105;46.046;10.760;2022-09-21T11:44:51;96045.78;;;17.55;35.53
63019;BME280;49105;46.046;10.760;2022-09-21T11:47:45;96037.59;;;17.60;35.52
63019;BME280;49105;46.046;10.760;2022-09-21T11:56:31;96031.66;;;17.63;35.39
63019;BME280;49105;46.046;10.760;2022-09-21T12:02:47;96021.03;;;17.80;36.41
63019;BME280;49105;46.046;10.760;2022-09-21T12:05:21;96017.25;;;17.81;36.08
63019;BME280;49105;46.046;10.760;2022-09-21T12:11:37;96017.91;;;17.78;36.09
63019;BME280;49105;46.046;10.760;2022-09-21T12:13:57;96013.50;;;17.82;36.18
63019;BME280;49105;46.046;10.760;2022-09-21T12:16:37;96006.41;;;17.78;35.79
63019;BME280;49105;46.046;10.760;2022-09-21T12:19:17;96003.25;;;17.84;36.31
63019;BME280;49105;46.046;10.760;2022-09-21T12:21:53;96001.72;;;17.92;36.36
63019;BME280;49105;46.046;10.760;2022-09-21T12:24:27;95998.28;;;18.00;36.38
63019;BME280;49105;46.046;10.760;2022-09-21T12:26:58;95994.50;;;18.10;36.51
63019;BME280;49105;46.046;10.760;2022-09-21T12:29:39;95990.94;;;18.23;36.83
63019;BME280;49105;46.046;10.760;2022-09-21T12:35:03;95993.28;;;18.25;37.12
63019;BME280;49105;46.046;10.760;2022-09-21T12:37:37;95993.78;;;18.27;37.16
63019;BME280;49105;46.046;10.760;2022-09-21T12:40:12;95996.78;;;18.34;36.90
63019;BME280;49105;46.046;10.760;2022-09-21T12:42:49;95990.63;;;18.33;36.87
63019;BME280;49105;46.046;10.760;2022-09-21T12:45:27;95995.78;;;18.13;37.36
63019;BME280;49105;46.046;10.760;2022-09-21T12:52:52;95986.53;;;18.36;38.25
63019;BME280;49105;46.046;10.760;2022-09-21T13:01:04;95976.16;;;18.52;37.87
63019;BME280;49105;46.046;10.760;2022-09-21T13:03:39;95984.81;;;18.57;38.33
63019;BME280;49105;46.046;10.760;2022-09-21T13:06:14;95985.00;;;18.61;38.41
63019;BME280;49105;46.046;10.760;2022-09-21T13:08:45;95981.53;;;18.52;38.79
63019;BME280;49105;46.046;10.760;2022-09-21T13:11:12;95977.91;;;18.56;38.91
63019;BME280;49105;46.046;10.760;2022-09-21T13:13:43;95984.66;;;18.63;38.73
63019;BME280;49105;46.046;10.760;2022-09-21T13:16:30;95980.59;;;18.74;38.87
63019;BME280;49105;46.046;10.760;2022-09-21T13:19:20;95977.13;;;18.82;38.95
63019;BME280;49105;46.046;10.760;2022-09-21T13:22:19;95971.28;;;18.80;38.93
63019;BME280;49105;46.046;10.760;2022-09-21T13:27:58;95973.00;;;18.76;39.01
63019;BME280;49105;46.046;10.760;2022-09-21T13:32:57;95974.44;;;18.82;39.21
63019;BME280;49105;46.046;10.760;2022-09-21T13:38:26;95964.50;;;18.82;39.12
63019;BME280;49105;46.046;10.760;2022-09-21T13:40:59;95962.59;;;18.83;39.36
63019;BME280;49105;46.046;10.760;2022-09-21T13:48:56;95960.25;;;18.73;39.09
63019;BME280;49105;46.046;10.760;2022-09-21T13:51:22;95959.28;;;18.60;39.28
63019;BME280;49105;46.046;10.760;2022-09-21T13:53:53;95967.47;;;18.55;39.36
63019;BME280;49105;46.046;10.760;2022-09-21T13:56:20;95976.00;;;18.57;39.24
63019;BME280;49105;46.046;10.760;2022-09-21T13:58:51;95972.81;;;18.64;39.23
63019;BME280;49105;46.046;10.760;2022-09-21T14:01:20;95966.53;;;18.59;39.57
63019;BME280;49105;46.046;10.760;2022-09-21T14:06:42;95970.63;;;18.40;39.82
63019;BME280;49105;46.046;10.760;2022-09-21T14:09:29;95960.19;;;18.29;39.78
63019;BME280;49105;46.046;10.760;2022-09-21T14:12:03;95961.47;;;18.41;39.88
63019;BME280;49105;46.046;10.760;2022-09-21T14:14:33;95964.00;;;18.46;40.25
63019;BME280;49105;46.046;10.760;2022-09-21T14:17:32;95961.78;;;18.30;39.92
63019;BME280;49105;46.046;10.760;2022-09-21T14:29:51;95961.59;;;18.18;40.27
63019;BME280;49105;46.046;10.760;2022-09-21T14:32:25;95964.78;;;18.20;40.18
63019;BME280;49105;46.046;10.760;2022-09-21T14:34:59;95957.94;;;18.05;40.38
63019;BME280;49105;46.046;10.760;2022-09-21T14:37:39;95969.75;;;17.96;40.41
63019;BME280;49105;46.046;10.760;2022-09-21T14:40:22;95971.91;;;17.85;40.52
63019;BME280;49105;46.046;10.760;2022-09-21T14:42:52;95971.75;;;17.81;40.80
63019;BME280;49105;46.046;10.760;2022-09-21T14:45:24;95976.63;;;17.79;40.53
63019;BME280;49105;46.046;10.760;2022-09-21T14:50:29;95974.00;;;17.57;40.90
63019;BME280;49105;46.046;10.760;2022-09-21T15:01:39;95983.59;;;16.96;42.23
63019;BME280;49105;46.046;10.760;2022-09-21T15:04:40;95982.09;;;16.90;42.16
63019;BME280;49105;46.046;10.760;2022-09-21T15:15:43;95986.06;;;16.56;42.96
63019;BME280;49105;46.046;10.760;2022-09-21T15:18:17;95975.38;;;16.56;43.05
63019;BME280;49105;46.046;10.760;2022-09-21T15:21:00;95975.84;;;16.58;43.41
63019;BME280;49105;46.046;10.760;2022-09-21T15:23:40;95992.50;;;16.55;43.47
63019;BME280;49105;46.046;10.760;2022-09-21T15:26:17;95982.34;;;16.43;43.59
63019;BME280;49105;46.046;10.760;2022-09-21T15:28:47;95989.38;;;16.39;43.66
63019;BME280;49105;46.046;10.760;2022-09-21T15:31:15;95988.59;;;16.38;43.95
63019;BME280;49105;46.046;10.760;2022-09-21T15:33:42;95989.38;;;16.39;43.71
63019;BME280;49105;46.046;10.760;2022-09-21T15:36:11;95992.97;;;16.34;43.98
63019;BME280;49105;46.046;10.760;2022-09-21T15:38:38;95987.91;;;16.33;44.00
63019;BME280;49105;46.046;10.760;2022-09-21T15:41:05;95996.34;;;16.26;44.07
63019;BME280;49105;46.046;10.760;2022-09-21T15:43:31;95990.59;;;16.19;44.20
63019;BME280;49105;46.046;10.760;2022-09-21T15:46:03;95995.28;;;16.13;44.26
63019;BME280;49105;46.046;10.760;2022-09-21T15:48:31;95989.63;;;16.15;44.50
63019;BME280;49105;46.046;10.760;2022-09-21T15:53:34;96002.84;;;16.20;44.48
63019;BME280;49105;46.046;10.760;2022-09-21T15:56:04;96007.91;;;16.22;44.35